createdAt,value
2023-01-20T00:02:04.970Z,1.60
2023-01-20T00:04:37.887Z,1.67
2023-01-20T00:07:10.847Z,1.30
2023-01-20T00:09:43.747Z,1.70
2023-01-20T00:12:16.619Z,1.38
2023-01-20T00:14:49.473Z,1.70
2023-01-20T00:17:23.763Z,1.33
2023-01-20T00:19:56.597Z,1.35
2023-01-20T00:22:29.483Z,1.70
2023-01-20T00:25:02.359Z,1.50
2023-01-20T00:27:35.261Z,1.58
2023-01-20T00:30:09.640Z,1.35
2023-01-20T00:32:44.988Z,1.40
2023-01-20T00:35:17.909Z,1.42
2023-01-20T00:37:50.858Z,1.45
2023-01-20T00:40:23.723Z,1.23
2023-01-20T00:42:56.641Z,1.30
2023-01-20T00:45:29.562Z,1.52
2023-01-20T00:48:04.166Z,1.55
2023-01-20T00:50:36.999Z,1.30
2023-01-20T00:53:10.015Z,1.45
2023-01-20T00:55:42.885Z,1.58
2023-01-20T00:58:16.776Z,0.95
2023-01-20T01:00:50.141Z,1.10
2023-01-20T01:03:24.472Z,0.93
2023-01-20T01:06:07.781Z,1.40
2023-01-20T01:08:41.042Z,1.15
2023-01-20T01:11:14.907Z,1.45
2023-01-20T01:13:47.796Z,1.30
2023-01-20T01:16:20.626Z,1.77
2023-01-20T01:18:56.215Z,1.27
2023-01-20T01:21:29.159Z,1.77
2023-01-20T01:24:02.036Z,1.42
2023-01-20T01:26:34.930Z,1.23
2023-01-20T01:29:07.894Z,1.00
2023-01-20T01:31:40.801Z,1.10
2023-01-20T01:34:15.334Z,1.30
2023-01-20T01:36:48.180Z,1.20
2023-01-20T01:39:21.094Z,1.38
2023-01-20T01:41:53.980Z,1.10
2023-01-20T01:44:28.520Z,1.13
2023-01-20T01:47:01.365Z,1.25
2023-01-20T01:49:35.932Z,1.40
2023-01-20T01:52:10.891Z,1.20
2023-01-20T01:54:45.949Z,1.20
2023-01-20T01:57:18.914Z,1.08
2023-01-20T01:59:52.735Z,1.30
2023-01-20T02:02:26.064Z,1.00
2023-01-20T02:05:00.757Z,1.00
2023-01-20T02:07:35.035Z,1.80
2023-01-20T02:10:08.770Z,1.25
2023-01-20T02:12:44.363Z,0.90
2023-01-20T02:15:18.534Z,0.90
2023-01-20T02:18:11.864Z,0.90
2023-01-20T02:21:05.592Z,1.15
2023-01-20T02:23:59.890Z,1.05
2023-01-20T02:26:58.415Z,0.88
2023-01-20T02:30:08.281Z,1.63
2023-01-20T02:32:51.362Z,1.20
2023-01-20T02:35:33.764Z,1.00
2023-01-20T02:38:15.412Z,0.93
2023-01-20T02:43:31.460Z,1.10
2023-01-20T02:46:11.080Z,1.25
2023-01-20T02:48:52.309Z,1.20
2023-01-20T02:51:28.210Z,1.35
2023-01-20T02:54:06.419Z,0.93
2023-01-20T02:56:40.325Z,1.00
2023-01-20T02:59:16.874Z,1.00
2023-01-20T03:01:54.688Z,1.10
2023-01-20T03:04:34.845Z,1.35
2023-01-20T03:07:10.780Z,1.30
2023-01-20T03:09:48.749Z,0.90
2023-01-20T03:12:28.168Z,1.00
2023-01-20T03:15:01.204Z,0.90
2023-01-20T03:17:34.889Z,1.02
2023-01-20T03:20:10.672Z,1.05
2023-01-20T03:22:43.702Z,1.10
2023-01-20T03:25:18.895Z,1.23
2023-01-20T03:27:51.763Z,1.02
2023-01-20T03:30:25.704Z,0.93
2023-01-20T03:32:58.886Z,1.17
2023-01-20T03:35:35.445Z,1.25
2023-01-20T03:38:10.121Z,1.17
2023-01-20T03:40:50.043Z,0.98
2023-01-20T03:43:35.170Z,1.10
2023-01-20T03:46:15.630Z,0.90
2023-01-20T03:48:53.830Z,1.38
2023-01-20T03:51:36.105Z,0.90
2023-01-20T03:54:12.273Z,1.50
2023-01-20T03:56:53.033Z,1.20
2023-01-20T03:59:26.737Z,1.17
2023-01-20T04:02:04.314Z,1.10
2023-01-20T04:04:40.479Z,1.13
2023-01-20T04:07:19.852Z,1.00
2023-01-20T04:09:55.641Z,0.90
2023-01-20T04:12:28.647Z,1.00
2023-01-20T04:15:02.111Z,1.20
2023-01-20T04:17:35.455Z,1.00
2023-01-20T04:20:11.478Z,1.02
2023-01-20T04:22:52.018Z,1.20
2023-01-20T04:25:27.671Z,1.00
2023-01-20T04:28:00.557Z,0.93
2023-01-20T04:30:33.497Z,1.13
2023-01-20T04:33:06.471Z,1.20
2023-01-20T04:35:39.303Z,1.10
2023-01-20T04:38:13.516Z,1.13
2023-01-20T04:40:46.361Z,1.10
2023-01-20T04:43:19.215Z,0.80
2023-01-20T04:45:52.247Z,1.20
2023-01-20T04:48:25.222Z,1.10
2023-01-20T04:50:58.145Z,1.38
2023-01-20T04:53:32.402Z,1.33
2023-01-20T04:56:05.804Z,1.05
2023-01-20T04:58:38.744Z,1.20
2023-01-20T05:01:11.750Z,1.17
2023-01-20T05:03:44.803Z,1.48
2023-01-20T05:06:18.915Z,1.20
2023-01-20T05:08:53.240Z,1.15
2023-01-20T05:11:26.208Z,1.52
2023-01-20T05:13:59.055Z,0.80
2023-01-20T05:16:32.243Z,1.20
2023-01-20T05:19:05.293Z,1.27
2023-01-20T05:21:38.221Z,1.13
2023-01-20T05:24:12.904Z,1.15
2023-01-20T05:26:45.853Z,1.20
2023-01-20T05:29:18.727Z,1.60
2023-01-20T05:31:51.556Z,1.35
2023-01-20T05:34:24.450Z,1.70
2023-01-20T05:36:57.327Z,1.40
2023-01-20T05:39:31.726Z,1.23
2023-01-20T05:42:04.979Z,1.30
2023-01-20T05:44:37.824Z,1.27
2023-01-20T05:47:11.048Z,1.50
2023-01-20T05:49:43.965Z,1.10
2023-01-20T05:52:16.930Z,1.52
2023-01-20T05:54:51.172Z,1.40
2023-01-20T05:57:25.362Z,1.40
2023-01-20T05:59:58.244Z,1.40
2023-01-20T06:02:31.813Z,1.45
2023-01-20T06:05:05.143Z,1.48
2023-01-20T06:07:38.010Z,1.63
2023-01-20T06:10:13.479Z,1.40
2023-01-20T06:12:53.173Z,1.40
2023-01-20T06:15:26.488Z,1.60
2023-01-20T06:17:59.350Z,1.45
2023-01-20T06:20:32.254Z,1.50
2023-01-20T06:23:05.128Z,1.55
2023-01-20T06:25:39.794Z,1.60
2023-01-20T06:28:12.628Z,1.70
2023-01-20T06:30:45.516Z,1.60
2023-01-20T06:33:18.400Z,1.77
2023-01-20T06:35:54.590Z,1.60
2023-01-20T06:38:29.870Z,1.90
2023-01-20T06:41:06.464Z,1.75
2023-01-20T06:43:41.962Z,1.45
2023-01-20T06:46:17.259Z,1.60
2023-01-20T06:48:50.141Z,1.55
2023-01-20T06:51:23.431Z,1.73
2023-01-20T06:53:56.401Z,2.00
2023-01-20T06:56:30.714Z,1.90
2023-01-20T06:59:03.678Z,2.15
2023-01-20T07:01:36.560Z,1.90
2023-01-20T07:04:13.595Z,1.92
2023-01-20T07:06:46.586Z,1.83
2023-01-20T07:09:19.547Z,2.38
2023-01-20T07:11:53.873Z,1.98
2023-01-20T07:14:26.723Z,1.70
2023-01-20T07:16:59.609Z,1.60
2023-01-20T07:19:32.481Z,1.60
2023-01-20T07:22:05.359Z,1.42
2023-01-20T07:24:38.248Z,1.70
2023-01-20T07:27:12.760Z,1.55
2023-01-20T07:29:45.625Z,1.73
2023-01-20T07:32:18.535Z,1.65
2023-01-20T07:34:51.751Z,2.10
2023-01-20T07:37:24.717Z,1.65
2023-01-20T07:39:57.747Z,1.70
2023-01-20T07:42:31.997Z,1.67
2023-01-20T07:45:05.794Z,1.50
2023-01-20T07:47:38.688Z,1.45
2023-01-20T07:50:12.364Z,1.42
2023-01-20T07:52:45.511Z,1.52
2023-01-20T07:55:18.346Z,1.60
2023-01-20T07:57:52.731Z,1.73
2023-01-20T08:00:25.995Z,1.40
2023-01-20T08:02:58.888Z,1.65
2023-01-20T08:05:33.347Z,1.73
2023-01-20T08:08:06.626Z,1.67
2023-01-20T08:10:39.520Z,1.70
2023-01-20T08:13:14.254Z,1.55
2023-01-20T08:15:47.119Z,1.65
2023-01-20T08:18:20.025Z,1.75
2023-01-20T08:20:53.222Z,1.60
2023-01-20T08:23:26.071Z,2.00
2023-01-20T08:25:59.964Z,1.77
2023-01-20T08:28:37.536Z,1.83
2023-01-20T08:31:12.794Z,1.90
2023-01-20T08:33:46.735Z,1.48
2023-01-20T08:36:21.529Z,1.70
2023-01-20T08:38:56.225Z,1.80
2023-01-20T08:41:31.696Z,1.77
2023-01-20T08:44:10.340Z,1.80
2023-01-20T08:46:44.458Z,2.10
2023-01-20T08:49:18.491Z,2.13
2023-01-20T08:51:54.009Z,1.92
2023-01-20T08:54:29.404Z,2.10
2023-01-20T08:57:02.316Z,2.28
2023-01-20T08:59:36.749Z,1.90
2023-01-20T09:02:10.885Z,2.05
2023-01-20T09:04:43.787Z,2.17
2023-01-20T09:07:17.216Z,2.08
2023-01-20T09:09:50.267Z,2.10
2023-01-20T09:12:23.326Z,2.30
2023-01-20T09:14:57.567Z,1.95
2023-01-20T09:17:30.481Z,2.10
2023-01-20T09:20:03.662Z,1.95
2023-01-20T09:22:36.584Z,1.88
2023-01-20T09:25:10.423Z,2.00
2023-01-20T09:27:43.291Z,2.00
2023-01-20T09:30:18.201Z,1.95
2023-01-20T09:32:53.202Z,2.25
2023-01-20T09:35:26.606Z,2.13
2023-01-20T09:38:22.469Z,2.20
2023-01-20T09:41:22.434Z,1.90
2023-01-20T09:44:03.216Z,1.83
2023-01-20T09:47:12.755Z,2.00
2023-01-20T09:50:24.230Z,2.05
2023-01-20T09:53:06.177Z,1.80
2023-01-20T09:55:44.973Z,2.42
2023-01-20T09:58:25.603Z,2.40
2023-01-20T10:01:09.993Z,2.30
2023-01-20T10:03:50.019Z,2.35
2023-01-20T10:06:27.565Z,2.38
2023-01-20T10:09:06.172Z,2.38
2023-01-20T10:11:44.388Z,2.38
2023-01-20T10:14:24.260Z,2.58
2023-01-20T10:17:05.588Z,2.70
2023-01-20T10:19:46.679Z,2.83
2023-01-20T10:22:27.335Z,2.90
2023-01-20T10:25:07.199Z,2.65
2023-01-20T10:27:46.569Z,2.45
2023-01-20T10:30:22.749Z,2.80
2023-01-20T10:33:01.903Z,2.78
2023-01-20T10:35:40.376Z,2.50
2023-01-20T10:38:22.295Z,2.60
2023-01-20T10:43:32.140Z,2.08
2023-01-20T10:46:20.696Z,2.63
2023-01-20T10:49:16.285Z,2.65
2023-01-20T10:52:05.935Z,2.28
2023-01-20T10:54:47.533Z,2.55
2023-01-20T10:57:20.710Z,2.40
2023-01-20T10:59:57.314Z,2.50
2023-01-20T11:02:32.104Z,2.63
2023-01-20T11:05:17.253Z,2.83
2023-01-20T11:07:55.135Z,2.53
2023-01-20T11:10:30.318Z,2.60
2023-01-20T11:13:03.646Z,3.15
2023-01-20T11:15:39.085Z,2.60
2023-01-20T11:18:29.886Z,2.90
2023-01-20T11:21:05.808Z,2.67
2023-01-20T11:23:42.001Z,2.83
2023-01-20T11:26:21.141Z,3.15
2023-01-20T11:28:56.857Z,2.85
2023-01-20T11:31:39.478Z,2.97
2023-01-20T11:34:31.427Z,3.00
2023-01-20T11:37:18.305Z,3.08
2023-01-20T11:40:17.031Z,3.03
2023-01-20T11:42:51.702Z,2.45
2023-01-20T11:45:32.647Z,2.83
2023-01-20T11:48:16.941Z,3.00
2023-01-20T11:50:54.482Z,2.60
2023-01-20T11:53:31.623Z,2.60
2023-01-20T11:56:18.077Z,2.60
2023-01-20T11:58:55.453Z,3.00
2023-01-20T12:01:30.430Z,2.88
2023-01-20T12:04:24.399Z,3.00
2023-01-20T12:07:01.666Z,2.83
2023-01-20T12:09:38.499Z,2.80
2023-01-20T12:12:21.970Z,2.40
2023-01-20T12:15:01.506Z,2.97
2023-01-20T12:17:42.469Z,2.70
2023-01-20T12:20:23.696Z,2.70
2023-01-20T12:23:08.886Z,2.90
2023-01-20T12:25:50.137Z,2.78
2023-01-20T12:28:29.540Z,2.83
2023-01-20T12:31:04.585Z,2.97
2023-01-20T12:33:40.177Z,3.10
2023-01-20T12:36:50.408Z,2.97
2023-01-20T12:39:59.245Z,3.20
2023-01-20T12:43:10.823Z,3.00
2023-01-20T12:46:06.150Z,2.92
2023-01-20T12:48:50.712Z,3.00
2023-01-20T12:51:37.092Z,2.50
2023-01-20T12:54:48.279Z,3.67
2023-01-20T12:57:37.494Z,2.33
2023-01-20T13:00:33.236Z,3.35
2023-01-20T13:03:29.447Z,2.85
2023-01-20T13:06:33.332Z,2.95
2023-01-20T13:09:19.692Z,3.22
2023-01-20T13:12:06.446Z,3.47
2023-01-20T13:14:43.888Z,2.92
2023-01-20T13:17:29.160Z,3.25
2023-01-20T13:20:06.060Z,3.00
2023-01-20T13:22:39.293Z,3.30
2023-01-20T13:25:17.195Z,3.10
2023-01-20T13:27:54.428Z,3.67
2023-01-20T13:30:43.051Z,3.30
2023-01-20T13:33:19.763Z,2.97
2023-01-20T13:35:54.501Z,3.45
2023-01-20T13:38:30.923Z,3.50
2023-01-20T13:41:06.158Z,3.60
2023-01-20T13:43:50.392Z,3.03
2023-01-20T13:46:49.327Z,3.55
2023-01-20T13:49:52.132Z,3.38
2023-01-20T13:53:17.164Z,2.60
2023-01-20T13:55:55.852Z,2.80
2023-01-20T13:58:30.249Z,3.20
2023-01-20T14:01:04.896Z,2.92
2023-01-20T14:03:39.941Z,2.90
2023-01-20T14:06:23.714Z,2.95
2023-01-20T14:08:58.150Z,2.70
2023-01-20T14:11:31.439Z,2.63
2023-01-20T14:14:06.516Z,2.75
2023-01-20T14:16:43.448Z,3.10
2023-01-20T14:19:23.390Z,2.65
2023-01-20T14:21:58.142Z,2.95
2023-01-20T14:24:37.261Z,3.30
2023-01-20T14:27:15.217Z,2.88
2023-01-20T14:29:49.975Z,2.75
2023-01-20T14:32:26.307Z,2.78
2023-01-20T14:34:59.688Z,3.10
2023-01-20T14:37:35.914Z,3.13
2023-01-20T14:40:24.025Z,3.40
2023-01-20T14:42:57.850Z,3.13
2023-01-20T14:45:33.351Z,2.85
2023-01-20T14:48:07.192Z,3.08
2023-01-20T14:50:41.317Z,2.85
2023-01-20T14:53:15.282Z,3.17
2023-01-20T14:56:02.000Z,3.13
2023-01-20T14:58:36.438Z,3.20
2023-01-20T15:01:22.116Z,3.30
2023-01-20T15:03:59.789Z,3.13
2023-01-20T15:06:32.790Z,3.60
2023-01-20T15:09:25.952Z,2.85
2023-01-20T15:12:36.175Z,3.45
2023-01-20T15:15:28.089Z,3.03
2023-01-20T15:18:19.990Z,3.65
2023-01-20T15:23:45.899Z,3.10
2023-01-20T15:26:27.005Z,2.70
2023-01-20T15:29:01.261Z,3.15
2023-01-20T15:31:34.151Z,2.90
2023-01-20T15:34:07.169Z,3.00
2023-01-20T15:36:40.253Z,3.15
2023-01-20T15:39:13.462Z,2.92
2023-01-20T15:41:47.607Z,3.20
2023-01-20T15:44:22.088Z,2.72
2023-01-20T15:46:58.045Z,2.90
2023-01-20T15:49:30.912Z,2.88
2023-01-20T15:52:03.811Z,3.28
2023-01-20T15:54:36.713Z,2.92
2023-01-20T15:57:13.942Z,3.13
2023-01-20T15:59:50.179Z,3.15
2023-01-20T16:02:26.982Z,3.03
2023-01-20T16:05:00.034Z,3.10
2023-01-20T16:07:32.948Z,2.90
2023-01-20T16:10:06.329Z,3.10
2023-01-20T16:12:39.183Z,2.95
2023-01-20T16:15:17.958Z,3.03
2023-01-20T16:17:52.795Z,3.50
2023-01-20T16:20:26.579Z,3.15
2023-01-20T16:22:59.494Z,3.15
2023-01-20T16:25:32.863Z,3.58
2023-01-20T16:28:13.815Z,3.33
2023-01-20T16:30:49.053Z,3.50
2023-01-20T16:33:24.094Z,3.55
2023-01-20T16:35:57.639Z,3.75
2023-01-20T16:38:30.597Z,3.90
2023-01-20T16:41:05.959Z,3.58
2023-01-20T16:43:41.008Z,3.72
2023-01-20T16:46:16.711Z,3.80
2023-01-20T16:48:50.072Z,3.42
2023-01-20T16:51:26.269Z,3.88
2023-01-20T16:54:00.139Z,4.38
2023-01-20T16:56:33.953Z,3.67
2023-01-20T16:59:08.150Z,3.95
2023-01-20T17:01:42.545Z,3.65
2023-01-20T17:04:15.397Z,4.13
2023-01-20T17:06:48.329Z,4.35
2023-01-20T17:09:21.165Z,3.92
2023-01-20T17:11:54.083Z,3.90
2023-01-20T17:14:27.084Z,3.75
2023-01-20T17:17:01.432Z,3.72
2023-01-20T17:19:34.576Z,3.97
2023-01-20T17:22:07.544Z,4.07
2023-01-20T17:24:40.460Z,4.18
2023-01-20T17:27:13.489Z,3.80
2023-01-20T17:29:46.350Z,3.95
2023-01-20T17:32:20.989Z,4.18
2023-01-20T17:34:53.923Z,4.35
2023-01-20T17:37:26.804Z,4.13
2023-01-20T17:40:00.447Z,4.90
2023-01-20T17:42:33.351Z,3.70
2023-01-20T17:45:07.553Z,3.70
2023-01-20T17:47:41.837Z,3.70
2023-01-20T17:50:15.384Z,4.55
2023-01-20T17:52:48.712Z,4.32
2023-01-20T17:55:21.786Z,3.95
2023-01-20T17:57:54.714Z,4.10
2023-01-20T18:00:27.585Z,4.40
2023-01-20T18:03:01.827Z,4.38
2023-01-20T18:05:35.865Z,4.13
2023-01-20T18:08:08.744Z,3.97
2023-01-20T18:10:41.783Z,3.35
2023-01-20T18:13:14.730Z,3.65
2023-01-20T18:15:47.600Z,3.55
2023-01-20T18:18:21.800Z,3.50
2023-01-20T18:20:54.684Z,3.42
2023-01-20T18:23:27.631Z,3.95
2023-01-20T18:26:00.487Z,3.42
2023-01-20T18:28:33.566Z,4.03
2023-01-20T18:31:09.139Z,3.50
2023-01-20T18:33:45.356Z,3.47
2023-01-20T18:36:23.526Z,3.42
2023-01-20T18:38:59.182Z,3.50
2023-01-20T18:41:36.409Z,4.07
2023-01-20T18:44:10.910Z,3.83
2023-01-20T18:46:43.932Z,3.88
2023-01-20T18:49:19.130Z,3.70
2023-01-20T18:51:52.023Z,4.10
2023-01-20T18:54:25.932Z,4.05
2023-01-20T18:56:58.823Z,4.43
2023-01-20T18:59:31.868Z,4.38
2023-01-20T19:02:04.890Z,4.72
2023-01-20T19:04:39.359Z,4.40
2023-01-20T19:07:12.260Z,4.25
2023-01-20T19:09:45.252Z,4.82
2023-01-20T19:12:18.184Z,4.50
2023-01-20T19:14:52.647Z,4.38
2023-01-20T19:17:26.819Z,4.53
2023-01-20T19:20:02.069Z,4.32
2023-01-20T19:22:35.079Z,3.95
2023-01-20T19:25:08.909Z,4.60
2023-01-20T19:27:42.171Z,4.40
2023-01-20T19:30:15.621Z,4.57
2023-01-20T19:32:48.664Z,4.63
2023-01-20T19:35:22.970Z,4.28
2023-01-20T19:37:56.349Z,4.55
2023-01-20T19:40:29.447Z,4.43
2023-01-20T19:43:02.669Z,4.68
2023-01-20T19:45:45.294Z,4.70
2023-01-20T19:48:18.768Z,4.90
2023-01-20T19:50:53.149Z,5.57
2023-01-20T19:53:26.034Z,5.70
2023-01-20T19:56:03.073Z,6.07
2023-01-20T19:58:36.266Z,7.07
2023-01-20T20:01:09.607Z,8.63
2023-01-20T20:03:43.925Z,8.05
2023-01-20T20:06:26.980Z,6.82
2023-01-20T20:09:02.721Z,5.93
2023-01-20T20:11:36.416Z,5.47
2023-01-20T20:14:12.127Z,5.07
2023-01-20T20:16:45.295Z,4.97
2023-01-20T20:19:20.068Z,4.95
2023-01-20T20:21:56.338Z,5.28
2023-01-20T20:24:29.331Z,4.75
2023-01-20T20:27:02.255Z,4.72
2023-01-20T20:29:35.171Z,4.65
2023-01-20T20:32:09.655Z,4.93
2023-01-20T20:34:42.716Z,4.97
2023-01-20T20:37:16.988Z,5.10
2023-01-20T20:39:49.843Z,4.65
2023-01-20T20:42:22.756Z,4.97
2023-01-20T20:44:55.644Z,4.57
2023-01-20T20:47:28.622Z,5.50
2023-01-20T20:50:01.541Z,4.15
2023-01-20T20:52:36.165Z,5.25
2023-01-20T20:55:12.194Z,4.95
2023-01-20T20:57:45.165Z,4.40
2023-01-20T21:00:20.948Z,4.63
2023-01-20T21:02:53.907Z,4.50
2023-01-20T21:05:26.887Z,4.07
2023-01-20T21:08:01.483Z,4.00
2023-01-20T21:10:34.401Z,4.32
2023-01-20T21:13:08.326Z,4.43
2023-01-20T21:15:41.414Z,4.18
2023-01-20T21:18:14.315Z,4.53
2023-01-20T21:20:47.285Z,4.55
2023-01-20T21:23:21.611Z,4.18
2023-01-20T21:25:55.174Z,4.72
2023-01-20T21:28:28.057Z,4.40
2023-01-20T21:31:01.092Z,4.25
2023-01-20T21:33:34.186Z,4.88
2023-01-20T21:36:09.695Z,3.70
2023-01-20T21:38:46.363Z,4.20
2023-01-20T21:41:20.355Z,4.70
2023-01-20T21:44:12.250Z,4.68
2023-01-20T21:49:35.811Z,3.70
2023-01-20T21:52:38.291Z,4.20
2023-01-20T21:55:15.976Z,3.75
2023-01-20T21:57:51.351Z,4.55
2023-01-20T22:00:24.866Z,4.10
2023-01-20T22:02:57.769Z,4.20
2023-01-20T22:05:30.971Z,4.45
2023-01-20T22:08:03.828Z,4.88
2023-01-20T22:10:38.175Z,3.72
2023-01-20T22:13:11.146Z,3.70
2023-01-20T22:15:44.017Z,3.97
2023-01-20T22:18:17.158Z,4.18
2023-01-20T22:20:50.012Z,4.68
2023-01-20T22:23:22.837Z,4.75
2023-01-20T22:25:57.147Z,5.63
2023-01-20T22:28:30.869Z,5.30
2023-01-20T22:31:06.366Z,4.97
2023-01-20T22:33:39.652Z,4.93
2023-01-20T22:36:12.564Z,4.97
2023-01-20T22:38:45.981Z,4.70
2023-01-20T22:41:21.981Z,4.32
2023-01-20T22:43:55.773Z,4.78
2023-01-20T22:46:29.820Z,4.82
2023-01-20T22:49:02.737Z,4.88
2023-01-20T22:51:35.637Z,4.50
2023-01-20T22:54:11.763Z,4.30
2023-01-20T22:56:46.105Z,4.32
2023-01-20T22:59:18.970Z,4.03
2023-01-20T23:01:51.910Z,3.85
2023-01-20T23:04:24.753Z,4.20
2023-01-20T23:06:57.703Z,4.32
2023-01-20T23:09:30.700Z,4.28
2023-01-20T23:12:05.742Z,4.10
2023-01-20T23:14:52.820Z,4.45
2023-01-20T23:17:25.735Z,3.88
2023-01-20T23:19:58.967Z,3.85
2023-01-20T23:22:31.826Z,3.88
2023-01-20T23:25:04.995Z,3.95
2023-01-20T23:27:39.722Z,4.40
2023-01-20T23:30:13.137Z,4.20
2023-01-20T23:32:46.183Z,4.38
2023-01-20T23:35:19.007Z,4.20
2023-01-20T23:37:52.031Z,3.85
2023-01-20T23:40:26.108Z,4.13
2023-01-20T23:43:00.526Z,4.22
2023-01-20T23:45:33.442Z,4.05
2023-01-20T23:48:06.909Z,4.03
2023-01-20T23:50:39.948Z,3.80
2023-01-20T23:53:12.928Z,4.40
2023-01-20T23:55:45.814Z,4.10
2023-01-20T23:58:20.079Z,3.97
